Terminal Aerodrome Forecast
Issued by NWS

Home | Current Version | Previous Version | Text Only | Print | Product List | Glossary On
Versions: 1 2 3 4 5 6 7 8 9 10 11 12 13 14 15 16 17 18 19 20 21 22 23 24
000
FTUS45 KGJT 202349 CCA
TAFMTJ
TAF COR
KMTJ 202349Z 2100/2124 25006KT P6SM VCSH FEW080 SCT120
      TEMPO 2100/2101 VRB25G38KT 4SM -TSRA BLDU SCT080CB BKN110
     FM210200 14005KT P6SM FEW120 BKN250
     FM210600 14006KT P6SM SCT050 BKN100
     FM211200 14008KT P6SM VCSH SCT040 BKN070
     FM211900 03005KT P6SM SCT100 SCT180=

USA.gov is the U.S. government's official web portal to all federal, state and local government web resources and services.